createdAt,value
2023-01-29T00:01:20.717Z,14.05
2023-01-29T00:03:50.717Z,13.73
2023-01-29T00:06:17.163Z,14.75
2023-01-29T00:08:43.549Z,13.65
2023-01-29T00:11:10.191Z,14.85
2023-01-29T00:13:36.698Z,14.75
2023-01-29T00:16:03.432Z,14.75
2023-01-29T00:18:31.600Z,13.57
2023-01-29T00:20:58.419Z,13.68
2023-01-29T00:23:24.815Z,12.60
2023-01-29T00:25:51.255Z,13.95
2023-01-29T00:28:17.686Z,14.30
2023-01-29T00:30:44.109Z,14.35
2023-01-29T00:33:10.542Z,14.52
2023-01-29T00:35:39.543Z,13.43
2023-01-29T00:38:05.977Z,14.75
2023-01-29T00:40:32.700Z,15.68
2023-01-29T00:42:59.099Z,13.77
2023-01-29T00:45:25.507Z,14.13
2023-01-29T00:47:51.960Z,13.90
2023-01-29T00:50:18.931Z,14.38
2023-01-29T00:52:46.874Z,16.35
2023-01-29T00:55:13.324Z,14.88
2023-01-29T00:57:39.922Z,14.60
2023-01-29T01:00:09.282Z,14.82
2023-01-29T01:02:35.816Z,13.98
2023-01-29T01:05:02.433Z,13.57
2023-01-29T01:07:29.204Z,12.82
2023-01-29T01:09:57.037Z,14.45
2023-01-29T01:12:23.449Z,13.43
2023-01-29T01:14:50.086Z,13.77
2023-01-29T01:17:16.758Z,13.98
2023-01-29T01:19:43.214Z,12.00
2023-01-29T01:22:09.644Z,14.20
2023-01-29T01:24:36.434Z,12.98
2023-01-29T01:27:04.458Z,12.82
2023-01-29T01:29:30.922Z,13.70
2023-01-29T01:31:57.414Z,13.32
2023-01-29T01:34:23.913Z,12.55
2023-01-29T01:36:50.329Z,13.50
2023-01-29T01:39:16.749Z,13.35
2023-01-29T01:41:43.141Z,12.15
2023-01-29T01:44:43.068Z,13.65
2023-01-29T01:47:10.817Z,13.23
2023-01-29T01:49:37.251Z,13.30
2023-01-29T01:52:04.523Z,11.38
2023-01-29T01:54:32.278Z,13.05
2023-01-29T01:57:03.294Z,12.52
2023-01-29T01:59:29.745Z,13.23
2023-01-29T02:01:56.176Z,13.23
2023-01-29T02:04:26.561Z,13.20
2023-01-29T02:06:54.339Z,14.45
2023-01-29T02:09:23.477Z,13.32
2023-01-29T02:11:50.726Z,13.23
2023-01-29T02:14:17.395Z,13.23
2023-01-29T02:16:43.798Z,12.70
2023-01-29T02:19:16.967Z,12.32
2023-01-29T02:22:13.912Z,12.45
2023-01-29T02:24:59.531Z,12.13
2023-01-29T02:27:34.312Z,12.52
2023-01-29T02:30:09.268Z,12.93
2023-01-29T02:32:42.182Z,12.95
2023-01-29T02:35:15.744Z,9.70
2023-01-29T02:37:50.062Z,12.65
2023-01-29T02:40:26.766Z,12.60
2023-01-29T02:43:01.292Z,11.90
2023-01-29T02:45:35.169Z,12.32
2023-01-29T02:48:02.407Z,12.60
2023-01-29T02:50:33.951Z,12.50
2023-01-29T02:53:05.215Z,12.73
2023-01-29T02:55:36.584Z,12.63
2023-01-29T02:58:09.896Z,12.77
2023-01-29T03:00:42.484Z,12.98
2023-01-29T03:03:14.313Z,11.50
2023-01-29T03:05:48.254Z,13.52
2023-01-29T03:08:20.278Z,13.65
2023-01-29T03:10:52.567Z,14.63
2023-01-29T03:13:25.893Z,14.18
2023-01-29T03:16:00.582Z,10.50
2023-01-29T03:18:31.684Z,13.20
2023-01-29T03:21:02.161Z,14.23
2023-01-29T03:23:31.747Z,13.85
2023-01-29T03:25:59.511Z,13.45
2023-01-29T03:28:29.315Z,13.95
2023-01-29T03:31:01.221Z,13.80
2023-01-29T03:33:31.328Z,13.48
2023-01-29T03:36:02.192Z,14.57
2023-01-29T03:38:29.467Z,15.50
2023-01-29T03:40:59.492Z,13.63
2023-01-29T03:43:34.612Z,13.32
2023-01-29T03:46:07.411Z,11.98
2023-01-29T03:48:36.627Z,13.38
2023-01-29T03:51:14.802Z,14.77
2023-01-29T03:53:47.387Z,13.98
2023-01-29T03:56:26.320Z,11.70
2023-01-29T03:58:59.129Z,14.73
2023-01-29T04:01:32.097Z,14.43
2023-01-29T04:04:05.461Z,15.57
2023-01-29T04:06:36.823Z,12.52
2023-01-29T04:09:07.394Z,14.90
2023-01-29T04:11:37.208Z,15.95
2023-01-29T04:14:07.016Z,15.07
2023-01-29T04:16:38.151Z,14.15
2023-01-29T04:19:05.687Z,15.90
2023-01-29T04:21:32.527Z,13.75
2023-01-29T04:23:58.982Z,14.55
2023-01-29T04:26:37.195Z,14.93
2023-01-29T04:29:18.587Z,14.18
2023-01-29T04:31:55.534Z,14.57
2023-01-29T04:34:27.562Z,14.18
2023-01-29T04:37:04.478Z,14.30
2023-01-29T04:39:40.338Z,14.05
2023-01-29T04:42:14.058Z,16.83
2023-01-29T04:44:45.797Z,13.35
2023-01-29T04:47:22.008Z,14.13
2023-01-29T04:49:59.026Z,14.75
2023-01-29T04:52:35.662Z,14.98
2023-01-29T04:55:07.621Z,13.45
2023-01-29T04:57:41.806Z,14.27
2023-01-29T05:00:13.404Z,14.13
2023-01-29T05:02:42.810Z,13.13
2023-01-29T05:05:11.069Z,13.05
2023-01-29T05:07:39.247Z,13.27
2023-01-29T05:10:08.306Z,13.88
2023-01-29T05:12:37.311Z,13.57
2023-01-29T05:15:12.300Z,12.23
2023-01-29T05:17:38.879Z,12.77
2023-01-29T05:20:08.332Z,13.20
2023-01-29T05:22:39.348Z,13.85
2023-01-29T05:25:20.740Z,13.38
2023-01-29T05:27:49.182Z,12.50
2023-01-29T05:30:16.288Z,12.93
2023-01-29T05:32:42.867Z,13.18
2023-01-29T05:35:10.853Z,12.60
2023-01-29T05:37:37.253Z,13.68
2023-01-29T05:40:04.337Z,12.82
2023-01-29T05:42:30.896Z,13.25
2023-01-29T05:44:57.286Z,13.02
2023-01-29T05:47:23.696Z,14.60
2023-01-29T05:49:50.122Z,12.82
2023-01-29T05:52:17.950Z,14.43
2023-01-29T05:54:44.365Z,13.55
2023-01-29T05:57:11.004Z,14.68
2023-01-29T05:59:37.398Z,12.48
2023-01-29T06:02:03.847Z,12.68
2023-01-29T06:04:30.307Z,12.80
2023-01-29T06:06:56.723Z,13.05
2023-01-29T06:09:24.469Z,14.35
2023-01-29T06:11:50.937Z,13.23
2023-01-29T06:14:17.336Z,13.25
2023-01-29T06:16:43.721Z,13.95
2023-01-29T06:19:10.205Z,14.55
2023-01-29T06:21:36.595Z,14.57
2023-01-29T06:24:03.228Z,13.52
2023-01-29T06:26:30.994Z,13.82
2023-01-29T06:28:57.383Z,14.43
2023-01-29T06:31:37.214Z,15.02
2023-01-29T06:34:04.625Z,14.57
2023-01-29T06:36:31.039Z,15.73
2023-01-29T06:38:57.443Z,16.23
2023-01-29T06:41:23.888Z,14.23
2023-01-29T06:43:51.667Z,14.60
2023-01-29T06:46:18.093Z,15.93
2023-01-29T06:48:44.496Z,14.68
2023-01-29T06:51:11.711Z,15.90
2023-01-29T06:53:39.067Z,14.93
2023-01-29T06:56:06.868Z,15.73
2023-01-29T06:58:33.487Z,14.27
2023-01-29T07:01:04.935Z,15.18
2023-01-29T07:03:31.604Z,15.13
2023-01-29T07:05:58.104Z,15.70
2023-01-29T07:08:24.522Z,16.83
2023-01-29T07:10:51.028Z,18.23
2023-01-29T07:13:17.417Z,18.65
2023-01-29T07:15:43.839Z,16.88
2023-01-29T07:18:11.630Z,17.15
2023-01-29T07:20:39.467Z,18.52
2023-01-29T07:23:06.291Z,19.67
2023-01-29T07:25:33.647Z,19.77
2023-01-29T07:28:01.063Z,20.30
2023-01-29T07:30:27.778Z,19.33
2023-01-29T07:32:54.308Z,20.73
2023-01-29T07:35:22.073Z,22.15
2023-01-29T07:37:49.418Z,21.25
2023-01-29T07:40:16.448Z,21.02
2023-01-29T07:42:43.050Z,22.98
2023-01-29T07:45:11.299Z,20.17
2023-01-29T07:47:37.847Z,19.98
2023-01-29T07:50:05.264Z,21.67
2023-01-29T07:52:33.886Z,19.85
2023-01-29T07:55:00.299Z,22.98
2023-01-29T07:57:26.686Z,22.23
2023-01-29T07:59:53.072Z,23.02
2023-01-29T08:02:19.520Z,21.75
2023-01-29T08:04:45.948Z,22.58
2023-01-29T08:07:12.342Z,22.33
2023-01-29T08:09:40.149Z,22.95
2023-01-29T08:12:06.956Z,25.30
2023-01-29T08:14:33.388Z,25.30
2023-01-29T08:16:59.869Z,22.85
2023-01-29T08:19:26.328Z,22.80
2023-01-29T08:21:52.730Z,23.42
2023-01-29T08:24:19.285Z,24.58
2023-01-29T08:26:47.139Z,22.23
2023-01-29T08:29:13.656Z,24.08
2023-01-29T08:31:40.408Z,21.58
2023-01-29T08:34:06.821Z,23.67
2023-01-29T08:36:33.242Z,23.00
2023-01-29T08:38:59.731Z,25.75
2023-01-29T08:41:26.137Z,22.55
2023-01-29T08:43:53.908Z,23.90
2023-01-29T08:46:20.393Z,25.48
2023-01-29T08:48:46.865Z,23.95
2023-01-29T08:51:13.544Z,23.45
2023-01-29T08:53:40.004Z,24.58
2023-01-29T08:56:06.832Z,21.55
2023-01-29T08:58:33.214Z,23.40
2023-01-29T09:01:07.075Z,23.98
2023-01-29T09:06:00.734Z,24.13
2023-01-29T09:08:27.254Z,23.00
2023-01-29T09:10:53.681Z,22.55
2023-01-29T09:13:20.111Z,22.35
2023-01-29T09:15:46.550Z,24.50
2023-01-29T09:18:14.339Z,24.00
2023-01-29T09:20:40.755Z,23.63
2023-01-29T09:23:08.093Z,24.08
2023-01-29T09:25:35.239Z,21.30
2023-01-29T09:28:02.019Z,23.45
2023-01-29T09:30:28.658Z,22.45
2023-01-29T09:32:55.400Z,23.25
2023-01-29T09:35:23.741Z,25.02
2023-01-29T09:37:50.640Z,23.92
2023-01-29T09:40:24.861Z,22.45
2023-01-29T09:42:58.000Z,23.40
2023-01-29T09:45:28.303Z,20.30
2023-01-29T09:47:58.929Z,20.75
2023-01-29T09:50:31.888Z,19.38
2023-01-29T09:53:02.464Z,21.15
2023-01-29T09:55:32.747Z,23.13
2023-01-29T09:58:03.584Z,21.25
2023-01-29T10:00:37.428Z,19.48
2023-01-29T10:06:09.458Z,21.13
2023-01-29T10:08:51.104Z,22.92
2023-01-29T10:11:30.727Z,20.85
2023-01-29T10:14:09.526Z,20.35
2023-01-29T10:16:48.162Z,21.67
2023-01-29T10:19:34.694Z,20.90
2023-01-29T10:22:41.006Z,21.13
2023-01-29T10:25:11.488Z,21.33
2023-01-29T10:27:40.813Z,18.75
2023-01-29T10:30:18.503Z,21.35
2023-01-29T10:32:45.672Z,19.67
2023-01-29T10:35:21.357Z,19.23
2023-01-29T10:37:53.137Z,18.30
2023-01-29T10:40:21.691Z,20.15
2023-01-29T10:42:55.434Z,19.85
2023-01-29T10:45:29.135Z,18.33
2023-01-29T10:50:47.134Z,20.83
2023-01-29T10:53:31.335Z,20.55
2023-01-29T10:56:21.868Z,16.48
2023-01-29T10:58:52.105Z,18.85
2023-01-29T11:01:18.690Z,17.95
2023-01-29T11:03:45.241Z,17.30
2023-01-29T11:06:17.047Z,17.42
2023-01-29T11:08:53.047Z,19.25
2023-01-29T11:11:22.003Z,17.85
2023-01-29T11:13:53.101Z,19.20
2023-01-29T11:16:19.551Z,17.25
2023-01-29T11:18:52.480Z,18.25
2023-01-29T11:21:19.070Z,17.10
2023-01-29T11:23:46.963Z,17.42
2023-01-29T11:26:18.736Z,18.33
2023-01-29T11:28:50.162Z,16.83
2023-01-29T11:31:20.511Z,19.23
2023-01-29T11:33:48.326Z,17.58
2023-01-29T11:36:28.493Z,18.33
2023-01-29T11:39:13.572Z,17.75
2023-01-29T11:41:44.652Z,16.88
2023-01-29T11:44:18.802Z,17.58
2023-01-29T11:46:45.677Z,15.52
2023-01-29T11:49:22.979Z,17.58
2023-01-29T11:51:54.347Z,16.20
2023-01-29T11:54:27.949Z,16.60
2023-01-29T11:56:55.619Z,18.80
2023-01-29T11:59:32.258Z,16.90
2023-01-29T12:02:05.621Z,17.17
2023-01-29T12:04:32.146Z,17.15
2023-01-29T12:06:58.606Z,19.58
2023-01-29T12:09:27.981Z,18.80
2023-01-29T12:11:54.850Z,19.60
2023-01-29T12:14:27.772Z,18.65
2023-01-29T12:16:58.474Z,19.73
2023-01-29T12:19:31.314Z,18.30
2023-01-29T12:22:03.982Z,19.63
2023-01-29T12:24:36.481Z,21.88
2023-01-29T12:27:12.193Z,20.38
2023-01-29T12:29:48.046Z,18.50
2023-01-29T12:32:26.211Z,18.70
2023-01-29T12:34:57.775Z,20.02
2023-01-29T12:37:30.755Z,22.13
2023-01-29T12:39:58.533Z,18.98
2023-01-29T12:42:25.132Z,20.08
2023-01-29T12:44:54.433Z,20.58
2023-01-29T12:47:30.942Z,19.23
2023-01-29T12:50:02.867Z,19.80
2023-01-29T12:52:39.511Z,18.85
2023-01-29T12:55:13.243Z,18.83
2023-01-29T12:57:45.712Z,18.70
2023-01-29T13:00:15.699Z,21.20
2023-01-29T13:02:49.694Z,20.20
2023-01-29T13:07:51.972Z,19.48
2023-01-29T13:10:26.060Z,19.15
2023-01-29T13:12:59.352Z,19.23
2023-01-29T13:15:31.354Z,21.10
2023-01-29T13:18:07.881Z,18.70
2023-01-29T13:20:35.455Z,20.23
2023-01-29T13:23:13.014Z,22.13
2023-01-29T13:25:40.853Z,18.42
2023-01-29T13:28:17.238Z,23.05
2023-01-29T13:30:43.768Z,18.92
2023-01-29T13:33:22.959Z,22.05
2023-01-29T13:35:58.898Z,19.85
2023-01-29T13:38:28.787Z,20.40
2023-01-29T13:41:01.508Z,20.40
2023-01-29T13:43:34.748Z,20.98
2023-01-29T13:46:08.701Z,18.80
2023-01-29T13:48:42.012Z,18.63
2023-01-29T13:51:12.655Z,21.50
2023-01-29T13:53:41.843Z,19.60
2023-01-29T13:56:44.981Z,17.50
2023-01-29T13:59:23.130Z,16.80
2023-01-29T14:02:20.439Z,18.73
2023-01-29T14:04:46.902Z,17.52
2023-01-29T14:07:48.856Z,18.55
2023-01-29T14:10:17.787Z,17.40
2023-01-29T14:12:51.520Z,19.48
2023-01-29T14:17:57.541Z,15.88
2023-01-29T14:20:38.870Z,16.65
2023-01-29T14:23:23.592Z,17.42
2023-01-29T14:25:50.327Z,16.65
2023-01-29T14:28:22.854Z,17.67
2023-01-29T14:30:50.237Z,16.23
2023-01-29T14:33:31.680Z,18.20
2023-01-29T14:35:58.834Z,17.58
2023-01-29T14:38:28.559Z,17.73
2023-01-29T14:41:09.033Z,18.20
2023-01-29T14:43:36.794Z,18.45
2023-01-29T14:46:43.566Z,17.40
2023-01-29T14:49:10.053Z,16.60
2023-01-29T14:51:39.537Z,19.52
2023-01-29T14:54:17.377Z,17.52
2023-01-29T14:56:49.250Z,16.45
2023-01-29T14:59:21.992Z,18.05
2023-01-29T15:01:53.319Z,19.65
2023-01-29T15:04:25.702Z,19.00
2023-01-29T15:06:57.221Z,19.80
2023-01-29T15:09:36.631Z,20.60
2023-01-29T15:12:13.164Z,20.75
2023-01-29T15:14:46.281Z,21.80
2023-01-29T15:17:27.801Z,22.83
2023-01-29T15:19:54.253Z,25.30
2023-01-29T15:22:21.963Z,23.77
2023-01-29T15:25:03.615Z,21.83
2023-01-29T15:27:30.899Z,19.92
2023-01-29T15:30:00.879Z,20.70
2023-01-29T15:32:31.417Z,21.90
2023-01-29T15:34:58.843Z,23.50
2023-01-29T15:37:27.886Z,24.85
2023-01-29T15:39:54.678Z,22.60
2023-01-29T15:42:21.090Z,25.55
2023-01-29T15:44:47.522Z,25.67
2023-01-29T15:47:19.758Z,25.13
2023-01-29T15:49:46.713Z,24.75
2023-01-29T15:52:18.385Z,22.35
2023-01-29T15:54:45.712Z,25.98
2023-01-29T15:57:20.498Z,26.33
2023-01-29T15:59:48.117Z,23.80
2023-01-29T16:02:37.376Z,23.33
2023-01-29T16:05:05.485Z,20.67
2023-01-29T16:07:32.633Z,22.20
2023-01-29T16:09:59.781Z,22.60
2023-01-29T16:12:27.201Z,25.02
2023-01-29T16:14:54.997Z,22.83
2023-01-29T16:17:23.866Z,21.27
2023-01-29T16:19:58.533Z,20.48
2023-01-29T16:22:26.168Z,23.27
2023-01-29T16:24:54.023Z,21.95
2023-01-29T16:27:20.600Z,21.77
2023-01-29T16:29:47.593Z,22.52
2023-01-29T16:32:14.170Z,20.92
2023-01-29T16:34:42.784Z,19.40
2023-01-29T16:37:22.427Z,22.42
2023-01-29T16:39:50.526Z,21.98
2023-01-29T16:42:22.793Z,22.48
2023-01-29T16:44:55.146Z,22.63
2023-01-29T16:47:26.513Z,21.50
2023-01-29T16:49:54.831Z,24.38
2023-01-29T16:52:26.074Z,21.70
2023-01-29T16:54:53.453Z,21.60
2023-01-29T16:57:24.393Z,22.30
2023-01-29T16:59:54.382Z,24.92
2023-01-29T17:02:25.790Z,22.35
2023-01-29T17:04:56.138Z,21.45
2023-01-29T17:07:24.516Z,22.60
2023-01-29T17:09:54.385Z,24.38
2023-01-29T17:12:23.994Z,21.15
2023-01-29T17:14:55.144Z,21.52
2023-01-29T17:17:22.049Z,21.88
2023-01-29T17:19:48.465Z,24.15
2023-01-29T17:22:14.933Z,25.80
2023-01-29T17:24:42.773Z,26.08
2023-01-29T17:27:17.034Z,25.00
2023-01-29T17:29:43.473Z,23.38
2023-01-29T17:32:09.901Z,24.27
2023-01-29T17:34:36.316Z,22.13
2023-01-29T17:37:02.766Z,23.42
2023-01-29T17:39:29.184Z,23.30
2023-01-29T17:41:58.595Z,25.70
2023-01-29T17:44:25.203Z,23.30
2023-01-29T17:46:52.259Z,25.42
2023-01-29T17:49:23.203Z,25.90
2023-01-29T17:51:49.705Z,23.98
2023-01-29T17:54:16.136Z,26.05
2023-01-29T17:56:42.565Z,26.05
2023-01-29T17:59:13.919Z,25.92
2023-01-29T18:01:40.599Z,25.63
2023-01-29T18:04:07.331Z,26.58
2023-01-29T18:06:33.945Z,25.05
2023-01-29T18:09:00.504Z,25.98
2023-01-29T18:11:27.496Z,25.55
2023-01-29T18:13:53.932Z,24.33
2023-01-29T18:16:22.091Z,24.55
2023-01-29T18:18:49.215Z,25.85
2023-01-29T18:21:16.011Z,24.70
2023-01-29T18:23:42.511Z,25.75
2023-01-29T18:26:10.784Z,25.25
2023-01-29T18:28:37.699Z,25.00
2023-01-29T18:31:05.041Z,23.45
2023-01-29T18:33:32.888Z,22.08
2023-01-29T18:35:59.370Z,22.98
2023-01-29T18:38:25.909Z,24.63
2023-01-29T18:40:52.402Z,23.08
2023-01-29T18:43:18.864Z,21.83
2023-01-29T18:45:45.364Z,22.38
2023-01-29T18:48:11.845Z,21.27
2023-01-29T18:50:41.207Z,21.48
2023-01-29T18:53:07.615Z,21.33
2023-01-29T18:55:34.105Z,21.63
2023-01-29T18:58:24.974Z,21.33
2023-01-29T19:00:47.054Z,19.85
2023-01-29T19:03:13.562Z,22.20
2023-01-29T19:05:41.495Z,20.52
2023-01-29T19:08:07.996Z,20.70
2023-01-29T19:10:34.556Z,21.30
2023-01-29T19:13:01.146Z,21.48
2023-01-29T19:15:27.823Z,19.25
2023-01-29T19:17:54.623Z,21.30
2023-01-29T19:20:21.110Z,20.48
2023-01-29T19:22:48.944Z,20.67
2023-01-29T19:25:16.488Z,22.23
2023-01-29T19:27:43.445Z,20.38
2023-01-29T19:30:11.281Z,20.80
2023-01-29T19:32:37.759Z,20.13
2023-01-29T19:35:04.761Z,18.92
2023-01-29T19:37:31.238Z,21.10
2023-01-29T19:39:59.059Z,19.45
2023-01-29T19:42:25.432Z,18.45
2023-01-29T19:44:51.924Z,19.38
2023-01-29T19:47:18.332Z,19.33
2023-01-29T19:49:44.760Z,17.30
2023-01-29T19:52:11.197Z,18.50
2023-01-29T19:54:37.574Z,19.60
2023-01-29T19:57:05.385Z,17.15
2023-01-29T19:59:31.827Z,19.15
2023-01-29T20:01:58.301Z,18.70
2023-01-29T20:04:24.723Z,17.77
2023-01-29T20:06:51.147Z,19.60
2023-01-29T20:09:17.620Z,20.88
2023-01-29T20:11:44.037Z,18.20
2023-01-29T20:14:11.974Z,19.48
2023-01-29T20:16:38.518Z,18.65
2023-01-29T20:19:13.372Z,17.42
2023-01-29T20:21:41.529Z,17.08
2023-01-29T20:24:11.577Z,18.08
2023-01-29T20:26:38.055Z,17.40
2023-01-29T20:29:04.586Z,18.52
2023-01-29T20:31:32.422Z,16.65
2023-01-29T20:33:58.911Z,18.77
2023-01-29T20:36:25.377Z,16.67
2023-01-29T20:38:51.757Z,18.70
2023-01-29T20:41:19.466Z,17.42
2023-01-29T20:43:46.560Z,17.42
2023-01-29T20:46:13.104Z,18.17
2023-01-29T20:48:40.995Z,16.55
2023-01-29T20:51:09.831Z,17.10
2023-01-29T20:53:37.205Z,17.85
2023-01-29T20:56:05.829Z,16.88
2023-01-29T20:58:32.529Z,17.08
2023-01-29T21:00:59.475Z,16.38
2023-01-29T21:03:26.035Z,16.65
2023-01-29T21:05:53.800Z,15.18
2023-01-29T21:08:20.429Z,17.95
2023-01-29T21:10:48.926Z,16.13
2023-01-29T21:13:15.394Z,16.02
2023-01-29T21:15:41.890Z,16.25
2023-01-29T21:18:08.283Z,16.02
2023-01-29T21:20:34.969Z,17.17
2023-01-29T21:23:05.238Z,15.63
2023-01-29T21:25:33.554Z,15.20
2023-01-29T21:27:59.965Z,14.80
2023-01-29T21:30:26.424Z,15.52
2023-01-29T21:32:52.968Z,16.17
2023-01-29T21:35:19.418Z,15.18
2023-01-29T21:37:45.828Z,15.25
2023-01-29T21:40:13.765Z,15.57
2023-01-29T21:42:40.443Z,16.92
2023-01-29T21:45:08.732Z,15.52
2023-01-29T21:47:35.152Z,14.90
2023-01-29T21:50:01.643Z,16.52
2023-01-29T21:52:28.052Z,16.13
2023-01-29T21:54:54.541Z,17.40
2023-01-29T21:57:22.315Z,12.55
2023-01-29T21:59:53.037Z,15.75
2023-01-29T22:02:21.098Z,15.77
2023-01-29T22:04:47.599Z,15.70
2023-01-29T22:07:14.410Z,16.50
2023-01-29T22:09:40.881Z,15.80
2023-01-29T22:12:08.647Z,17.92
2023-01-29T22:14:36.400Z,16.48
2023-01-29T22:17:02.825Z,16.15
2023-01-29T22:19:29.477Z,17.42
2023-01-29T22:21:56.006Z,14.98
2023-01-29T22:24:22.436Z,17.27
2023-01-29T22:26:49.605Z,17.25
2023-01-29T22:29:16.325Z,18.05
2023-01-29T22:31:44.504Z,17.98
2023-01-29T22:34:11.647Z,16.95
2023-01-29T22:36:38.488Z,17.15
2023-01-29T22:39:05.312Z,15.05
2023-01-29T22:41:31.757Z,16.63
2023-01-29T22:43:58.182Z,17.45
2023-01-29T22:46:24.676Z,17.05
2023-01-29T22:48:52.805Z,19.42
2023-01-29T22:51:19.396Z,17.27
2023-01-29T22:53:49.760Z,17.52
2023-01-29T22:56:17.688Z,18.13
2023-01-29T22:58:44.204Z,18.77
2023-01-29T23:01:10.716Z,17.00
2023-01-29T23:03:37.192Z,16.88
2023-01-29T23:06:05.064Z,19.83
2023-01-29T23:08:32.482Z,17.33
2023-01-29T23:11:02.741Z,18.90
2023-01-29T23:13:29.144Z,18.38
2023-01-29T23:15:58.719Z,20.85
2023-01-29T23:18:25.268Z,19.83
2023-01-29T23:20:56.765Z,19.52
2023-01-29T23:23:24.577Z,18.65
2023-01-29T23:25:56.442Z,17.30
2023-01-29T23:28:22.892Z,18.35
2023-01-29T23:30:49.309Z,19.75
2023-01-29T23:33:16.200Z,17.65
2023-01-29T23:35:42.605Z,21.83
2023-01-29T23:38:08.988Z,16.88
2023-01-29T23:40:36.711Z,18.08
2023-01-29T23:43:03.193Z,17.50
2023-01-29T23:45:29.683Z,18.98
2023-01-29T23:47:56.085Z,18.42
2023-01-29T23:50:22.467Z,18.20
2023-01-29T23:52:48.854Z,20.10
2023-01-29T23:55:15.412Z,18.70
2023-01-29T23:57:43.141Z,19.50
